Toledo, OH (43609)

2:42 AM EDT on October 23, 2014 (GMT -0400)
University of Toledo | Change Station
CLOSE
Current Station
Personal Weather Station
Location: Toledo, OH
Elevation: 597 ft
Nearby Weather Stations

Elev 597 ft 41.66 °N, 83.62 °W | Updated 9 minutes ago

Clear
Clear
37.9 °F
Feels Like 38 °F
N
0.0
Wind Variable Wind from NW
Gusts 0.0 mph

Today
High -- | Low -- °F
--% Chance of Precip.
Yesterday
High -- | Low -- °F
Precip. -- in
7:55 AM 6:41 PM
Waning Crescent, 0% visible
Pressure 30.29 in
Visibility 10.0 miles
Clouds Few 1400 ft
Windchill 38 °F
Dew Point 37 °F
Humidity 95%
Rainfall -999.00 in
Snow Depth Not available.
UV 0 out of 12
Pollen .60 out of 12
Air Quality Not available.
Flu Activity Sporadic
METAR KTDZ 230553Z AUTO 35003KT 10SM FEW014 06/03 A3028 RMK AO2 SLP255 T00560028 10100 20050 50001 TSNO

More Conditions Fewer Conditions

Pressure 30.29 in
Visibility 10.0 miles
Clouds Few 1400 ft
Windchill 38 °F
Dew Point 37 °F
Humidity 95%
Rainfall -999.00 in
Snow Depth Not available.
UV 0 out of 12
Pollen .60 out of 12
Air Quality Not available.
Flu Activity Sporadic
METAR KTDZ 230553Z AUTO 35003KT 10SM FEW014 06/03 A3028 RMK AO2 SLP255 T00560028 10100 20050 50001 TSNO

More Conditions Fewer Conditions

10-Day Weather Forecast

Almanac

Astronomy

Oct. 23, 2014 Rise Set
Actual Time 7:55 AM EDT 6:41 PM EDT
Civil Twilight 7:27 AM EDT 7:09 PM EDT
Nautical Twilight 6:54 AM EDT 7:41 PM EDT
Astronomical Twilight 6:22 AM EDT 8:13 PM EDT
Moon 7:33 AM EDT 6:42 PM EDT
Length of Visible Light 11h 42m
Length of Day
10h 45m
Tomorrow will be 2m 35s shorter.
Waning Crescent, 0% of the Moon is Illuminated
Today
Waning Crescent
Oct 23
New
Oct 30
First Quarter
Nov 6
Full
Nov 14
Last Quarter

Today's Extremes

State Highs State Lows

Community

WunderPhotos

Upload Photos

1,764,194 photos uploaded!

Nearby

Snow Depth

Station Depth Elevation
No new snow has been reported.

Earthquake Activity

City Distance Mag. Time & Date
No recent earthquake activity has been reported nearby.
Minimum magnitude displayed is 2.5.

Coastal Water Temperatures

Place Temperature
Marblehead, OH 52.0 °F

Nearby Weather Stations